METAR Data
IDs: Format: Raw Decoded Include TAF

Data at: 0719 UTC 18 Sep 2021

EBLG 180650Z 15004KT CAVOK 13/11 Q1017 NOSIG